createdAt,value
2023-02-19T00:00:10.135Z,10.5
2023-02-19T00:10:10.220Z,10.5
2023-02-19T00:20:10.161Z,10.5
2023-02-19T00:30:10.233Z,10.5
2023-02-19T00:40:10.124Z,10.5
2023-02-19T00:50:10.113Z,10.5
2023-02-19T01:00:10.185Z,10.5
2023-02-19T01:10:00.334Z,10.5
2023-02-19T01:20:00.241Z,10.5
2023-02-19T01:30:00.367Z,10
2023-02-19T01:40:00.271Z,9.5
2023-02-19T01:50:00.338Z,9.5
2023-02-19T02:00:00.290Z,9.5
2023-02-19T02:10:00.361Z,9.5
2023-02-19T02:20:00.310Z,9.5
2023-02-19T02:30:00.389Z,9.5
2023-02-19T02:40:00.258Z,9.5
2023-02-19T02:50:00.354Z,9.5
2023-02-19T03:00:00.458Z,9.5
2023-02-19T03:10:00.329Z,9.5
2023-02-19T03:20:00.424Z,9.5
2023-02-19T03:30:00.475Z,9.5
2023-02-19T03:40:00.431Z,9.5
2023-02-19T03:50:00.331Z,9.5
2023-02-19T04:00:00.430Z,9.5
2023-02-19T04:10:00.306Z,9.5
2023-02-19T04:20:00.438Z,9.5
2023-02-19T04:30:00.609Z,9.5
2023-02-19T04:40:00.417Z,9.5
2023-02-19T04:50:00.524Z,9.5
2023-02-19T05:00:00.404Z,9.5
2023-02-19T05:10:00.513Z,9.5
2023-02-19T05:20:00.424Z,9.5
2023-02-19T05:30:00.588Z,9.5
2023-02-19T05:40:00.424Z,9.5
2023-02-19T05:50:00.520Z,9.5
2023-02-19T06:00:00.622Z,9.5
2023-02-19T06:10:00.539Z,9.5
2023-02-19T06:20:00.654Z,10
2023-02-19T06:30:00.574Z,10
2023-02-19T06:40:00.589Z,10
2023-02-19T06:50:00.522Z,9.5
2023-02-19T07:00:00.646Z,9.5
2023-02-19T07:10:00.522Z,9.5
2023-02-19T07:20:00.610Z,10
2023-02-19T07:30:00.511Z,9.5
2023-02-19T07:40:00.626Z,9.5
2023-02-19T07:50:00.537Z,10
2023-02-19T08:00:00.641Z,10
2023-02-19T08:10:00.725Z,11
2023-02-19T08:20:00.668Z,11
2023-02-19T08:30:00.799Z,11
2023-02-19T08:40:00.668Z,11
2023-02-19T08:50:00.752Z,11
2023-02-19T09:00:00.628Z,11
2023-02-19T09:10:00.729Z,11
2023-02-19T09:20:00.640Z,12
2023-02-19T09:30:00.771Z,12
2023-02-19T09:40:00.843Z,12
2023-02-19T09:50:00.707Z,12
2023-02-19T10:00:00.825Z,12
2023-02-19T10:10:00.781Z,13
2023-02-19T10:20:01.235Z,13
2023-02-19T10:30:01.122Z,13
2023-02-19T10:40:00.941Z,13
2023-02-19T10:50:02.550Z,14
2023-02-19T11:00:00.963Z,15
2023-02-19T11:10:00.856Z,14
2023-02-19T11:20:00.827Z,14
2023-02-19T11:30:00.917Z,14
2023-02-19T11:40:01.056Z,13.5
2023-02-19T11:50:00.884Z,13.5
2023-02-19T12:00:00.972Z,14
2023-02-19T12:10:00.907Z,14
2023-02-19T12:20:01.050Z,14.5
2023-02-19T12:30:00.952Z,14.5
2023-02-19T12:40:00.992Z,15
2023-02-19T12:50:00.914Z,14.5
2023-02-19T13:00:01.033Z,15
2023-02-19T13:10:00.885Z,14.5
2023-02-19T13:20:00.989Z,14.5
2023-02-19T13:30:00.957Z,15
2023-02-19T13:40:01.064Z,14.5
2023-02-19T13:50:01.105Z,15
2023-02-19T14:00:00.963Z,15
2023-02-19T14:10:01.050Z,14.5
2023-02-19T14:20:00.960Z,14.5
2023-02-19T14:30:01.128Z,15
2023-02-19T14:40:01.017Z,15
2023-02-19T14:50:01.090Z,14.5
2023-02-19T15:00:00.984Z,14
2023-02-19T15:10:02.983Z,14
2023-02-19T15:20:00.998Z,14
2023-02-19T15:30:01.235Z,14
2023-02-19T15:40:00.981Z,14.5
2023-02-19T15:50:01.139Z,14.5
2023-02-19T16:00:01.307Z,14.5
2023-02-19T16:10:01.211Z,14.5
2023-02-19T16:20:01.334Z,14
2023-02-19T16:30:01.161Z,14
2023-02-19T16:40:01.291Z,13.5
2023-02-19T16:50:01.141Z,13.5
2023-02-19T17:00:01.206Z,12.5
2023-02-19T17:10:01.106Z,12.5
2023-02-19T17:20:01.202Z,12.5
2023-02-19T17:30:01.161Z,11.5
2023-02-19T17:40:01.221Z,11.5
2023-02-19T17:50:01.331Z,11.5
2023-02-19T18:00:01.282Z,11.5
2023-02-19T18:10:01.319Z,11.5
2023-02-19T18:20:01.201Z,10.5
2023-02-19T18:30:01.392Z,10.5
2023-02-19T18:40:01.263Z,10.5
2023-02-19T18:50:01.357Z,10.5
2023-02-19T19:00:01.227Z,10.5
2023-02-19T19:10:01.442Z,10.5
2023-02-19T19:20:01.450Z,10.5
2023-02-19T19:30:01.415Z,10.5
2023-02-19T19:40:01.425Z,10.5
2023-02-19T19:50:01.313Z,10.5
2023-02-19T20:00:01.432Z,10.5
2023-02-19T20:10:01.333Z,10.5
2023-02-19T20:20:01.461Z,10.5
2023-02-19T20:30:01.309Z,10.5
2023-02-19T20:40:01.444Z,10.5
2023-02-19T20:50:01.355Z,11
2023-02-19T21:00:01.427Z,11
2023-02-19T21:10:01.550Z,11
2023-02-19T21:20:01.556Z,11
2023-02-19T21:30:01.503Z,11
2023-02-19T21:40:01.470Z,10.5
2023-02-19T21:50:01.547Z,11
2023-02-19T22:00:01.380Z,11
2023-02-19T22:10:01.488Z,11
2023-02-19T22:20:01.566Z,11
2023-02-19T22:30:01.491Z,11
2023-02-19T22:40:01.581Z,11
2023-02-19T22:50:01.508Z,11
2023-02-19T23:00:01.582Z,11
2023-02-19T23:10:01.457Z,11
2023-02-19T23:20:01.596Z,11
2023-02-19T23:30:01.501Z,11
2023-02-19T23:40:01.597Z,11
2023-02-19T23:50:01.687Z,11
